Time;durP1;ratioP1;P1;durP2;ratioP2;P2;SDS_P1;SDS_P2;PMS_P1;PMS_P2;Temp;Humidity;BMP_temperature;BMP_pressure;BME280_temperature;BME280_humidity;BME280_pressure;Samples;Min_cycle;Max_cycle;Signal;HPM_P1;HPM_P2
2021/01/11 00:01:01;;;;;;;7.20;6.60;;;;;;;1.01;85.46;100988.91;5051201;28;20171;-72
2021/01/11 00:03:26;;;;;;;8.00;7.27;;;;;;;0.99;85.68;100983.78;5051105;28;20190;-72
2021/01/11 00:05:52;;;;;;;37.73;10.53;;;;;;;0.98;85.64;100986.72;5051116;28;20222;-72
2021/01/11 00:08:17;;;;;;;17.77;13.43;;;;;;;0.99;85.61;100977.56;5050849;28;20254;-72
2021/01/11 00:10:42;;;;;;;12.23;7.97;;;;;;;0.97;86.10;100982.38;5051268;28;20179;-72
2021/01/11 00:13:08;;;;;;;7.23;6.03;;;;;;;0.98;86.06;100982.13;5050941;28;20176;-72
2021/01/11 00:15:33;;;;;;;13.47;10.30;;;;;;;1.00;85.57;100974.66;5050489;28;20203;-72
2021/01/11 00:17:58;;;;;;;9.77;8.70;;;;;;;1.02;86.29;100977.13;5050405;28;20258;-72
2021/01/11 00:20:24;;;;;;;6.90;6.17;;;;;;;1.02;85.80;100971.75;5050981;28;20187;-72
2021/01/11 00:22:49;;;;;;;10.83;9.80;;;;;;;1.02;86.05;100964.50;5050898;28;20180;-73
2021/01/11 00:25:14;;;;;;;10.33;8.80;;;;;;;1.04;86.03;100967.78;5050942;28;20175;-72
2021/01/11 00:27:41;;;;;;;17.90;11.90;;;;;;;1.06;85.59;100968.34;5050452;28;20179;-71
2021/01/11 00:30:08;;;;;;;16.80;10.87;;;;;;;1.10;85.84;100964.13;5050732;28;20529;-72
2021/01/11 00:32:35;;;;;;;9.73;7.40;;;;;;;1.12;85.58;100969.25;5050749;28;20487;-72
2021/01/11 00:35:01;;;;;;;20.40;13.77;;;;;;;1.12;85.91;100964.69;5050546;28;20572;-72
2021/01/11 00:37:26;;;;;;;22.27;14.40;;;;;;;1.13;85.71;100952.88;5050391;28;20910;-72
2021/01/11 00:39:53;;;;;;;14.23;9.73;;;;;;;1.13;85.45;100965.53;5050102;28;20429;-73
2021/01/11 00:42:18;;;;;;;7.40;6.67;;;;;;;1.10;85.71;100953.38;5050673;28;20180;-72
2021/01/11 00:44:43;;;;;;;14.27;12.97;;;;;;;1.09;85.97;100951.72;5050651;28;20430;-72
2021/01/11 00:47:09;;;;;;;15.87;13.40;;;;;;;1.08;86.30;100943.91;5050102;28;20179;-72
2021/01/11 00:49:34;;;;;;;6.73;6.17;;;;;;;1.10;86.02;100939.09;5050600;28;20199;-72
2021/01/11 00:51:59;;;;;;;12.43;9.90;;;;;;;1.10;86.11;100941.78;5050650;28;20183;-72
2021/01/11 00:54:25;;;;;;;12.00;9.10;;;;;;;1.11;86.22;100948.78;5050434;28;20333;-71
2021/01/11 00:56:50;;;;;;;13.53;12.20;;;;;;;1.10;86.35;100947.16;5049986;28;20175;-72
2021/01/11 00:59:15;;;;;;;17.33;15.67;;;;;;;1.10;86.41;100945.28;5050462;28;20179;-72
2021/01/11 01:01:51;;;;;;;7.60;6.87;;;;;;;1.08;86.47;100941.22;5050559;28;20685;-72
2021/01/11 01:04:17;;;;;;;15.00;9.53;;;;;;;1.06;86.79;100930.69;5051044;28;20739;-72
2021/01/11 01:06:42;;;;;;;14.17;11.17;;;;;;;1.05;86.85;100929.03;5050085;28;20425;-72
2021/01/11 01:09:08;;;;;;;8.40;7.60;;;;;;;1.06;87.00;100936.06;5050222;28;20487;-72
2021/01/11 01:11:37;;;;;;;14.90;11.90;;;;;;;1.08;87.11;100925.06;5050339;28;20217;-72
2021/01/11 01:14:02;;;;;;;19.53;15.43;;;;;;;1.08;87.42;100933.13;5048448;28;20218;-72
2021/01/11 01:16:28;;;;;;;14.30;12.67;;;;;;;1.10;87.21;100937.22;5049813;28;20505;-72
2021/01/11 01:18:54;;;;;;;8.27;7.43;;;;;;;1.09;87.47;100940.97;5050244;28;20206;-72
2021/01/11 01:21:20;;;;;;;14.07;12.77;;;;;;;1.08;87.26;100925.88;5050374;28;20183;-72
2021/01/11 01:23:46;;;;;;;8.80;7.73;;;;;;;1.08;87.17;100931.25;5050265;28;20195;-72
2021/01/11 01:26:11;;;;;;;18.40;16.47;;;;;;;1.06;87.19;100932.56;5049801;28;20197;-72
2021/01/11 01:28:36;;;;;;;17.30;13.00;;;;;;;1.05;87.43;100934.44;5050159;28;20175;-72
2021/01/11 01:31:01;;;;;;;12.73;10.90;;;;;;;1.05;87.29;100944.38;5050001;28;20689;-73
2021/01/11 01:33:27;;;;;;;17.10;15.33;;;;;;;1.04;87.50;100937.34;5050111;28;20182;-72
2021/01/11 01:35:55;;;;;;;23.33;20.33;;;;;;;1.01;87.47;100952.06;5050231;28;20269;-72
2021/01/11 01:38:21;;;;;;;22.37;15.60;;;;;;;1.02;87.42;100937.59;5049655;28;20417;-72
2021/01/11 01:40:47;;;;;;;17.17;12.63;;;;;;;1.00;87.27;100937.00;5050220;28;20186;-72
2021/01/11 01:43:12;;;;;;;18.50;11.77;;;;;;;1.02;87.50;100937.59;5049937;28;20918;-72
2021/01/11 01:45:38;;;;;;;14.43;13.00;;;;;;;1.00;87.54;100937.00;5049968;28;20188;-72
2021/01/11 01:48:06;;;;;;;10.90;9.50;;;;;;;0.99;87.42;100927.28;5049727;28;20172;-72
2021/01/11 01:50:32;;;;;;;17.43;14.07;;;;;;;0.97;87.40;100924.00;5051301;28;20184;-72
2021/01/11 01:52:57;;;;;;;16.73;12.20;;;;;;;0.96;87.76;100926.94;5054110;28;20425;-72
2021/01/11 01:55:23;;;;;;;15.10;11.33;;;;;;;0.96;87.31;100926.94;5053942;28;20252;-71
2021/01/11 01:57:52;;;;;;;8.37;7.63;;;;;;;0.96;87.64;100932.31;5053372;28;20316;-72
2021/01/11 02:00:18;;;;;;;8.53;7.83;;;;;;;0.96;87.34;100933.16;5053454;28;20228;-72
2021/01/11 02:02:44;;;;;;;9.80;8.73;;;;;;;0.97;87.51;100932.09;5053444;28;20793;-72
2021/01/11 02:05:09;;;;;;;15.97;11.90;;;;;;;0.96;87.43;100921.56;5053562;28;20417;-73
2021/01/11 02:08:16;;;;;;;9.00;7.30;;;;;;;0.96;87.56;100916.19;5051899;28;20179;-73
2021/01/11 02:11:12;;;;;;;12.87;9.83;;;;;;;0.95;87.26;100926.13;5036020;28;20187;-72
2021/01/11 02:13:50;;;;;;;16.63;10.67;;;;;;;0.94;87.18;100919.13;5053469;28;20410;-72
2021/01/11 02:16:25;;;;;;;10.93;7.87;;;;;;;0.93;87.64;100917.47;5052651;28;20542;-73
2021/01/11 02:19:06;;;;;;;10.03;9.03;;;;;;;0.93;87.23;100924.72;5053254;28;20405;-72
2021/01/11 02:21:50;;;;;;;12.97;10.33;;;;;;;0.93;87.60;100922.88;5053323;28;20417;-72
2021/01/11 02:24:40;;;;;;;10.73;9.73;;;;;;;0.93;87.68;100914.78;5053205;28;20479;-72
2021/01/11 02:27:39;;;;;;;11.43;9.47;;;;;;;0.93;87.35;100912.09;5052861;28;20528;-72
2021/01/11 02:30:05;;;;;;;15.00;7.33;;;;;;;0.97;87.39;100918.63;5053193;28;20953;-73
2021/01/11 02:32:30;;;;;;;13.83;9.20;;;;;;;0.96;87.14;100916.19;5051650;28;20453;-73
2021/01/11 02:35:01;;;;;;;12.13;9.53;;;;;;;0.95;87.03;100914.56;5053219;28;20265;-72
2021/01/11 02:37:27;;;;;;;10.60;8.43;;;;;;;0.98;86.98;100922.16;5052770;28;20442;-72
2021/01/11 02:39:53;;;;;;;14.00;11.90;;;;;;;1.01;87.08;100918.97;5052839;28;20457;-72
2021/01/11 02:42:19;;;;;;;6.93;6.33;;;;;;;1.03;86.86;100919.59;5052976;28;20171;-72
2021/01/11 02:44:44;;;;;;;12.77;11.37;;;;;;;1.03;86.65;100898.88;5052889;28;20458;-73
2021/01/11 02:47:10;;;;;;;15.17;12.17;;;;;;;1.05;86.73;100909.41;5052511;28;20647;-72
2021/01/11 02:49:41;;;;;;;21.00;18.73;;;;;;;1.04;87.18;100899.69;5052803;28;20624;-72
2021/01/11 02:52:34;;;;;;;14.73;12.97;;;;;;;1.06;86.60;100919.91;5052730;28;20778;-72
2021/01/11 02:55:24;;;;;;;11.47;10.30;;;;;;;1.07;86.48;100908.09;5052532;28;20989;-72
2021/01/11 02:58:04;;;;;;;16.80;14.33;;;;;;;1.06;86.60;100897.59;5052047;28;20456;-72
2021/01/11 03:00:36;;;;;;;16.63;11.90;;;;;;;1.07;86.35;100902.72;5052475;28;20885;-72
2021/01/11 03:03:05;;;;;;;19.83;17.73;;;;;;;1.08;86.30;100893.59;5051764;28;20418;-72
2021/01/11 03:05:31;;;;;;;20.00;16.63;;;;;;;1.09;86.52;100897.91;5052720;28;20422;-72
2021/01/11 03:07:57;;;;;;;9.17;8.20;;;;;;;1.07;86.22;100897.34;5051933;28;20433;-72
2021/01/11 03:10:23;;;;;;;9.87;8.97;;;;;;;1.06;86.20;100894.88;5052696;28;20822;-73
2021/01/11 03:12:49;;;;;;;16.10;12.83;;;;;;;1.04;86.64;100899.69;5052297;28;20270;-72
2021/01/11 03:15:15;;;;;;;10.33;8.80;;;;;;;1.06;86.72;100894.88;5051441;28;20678;-72
2021/01/11 03:17:41;;;;;;;11.47;8.63;;;;;;;1.06;86.52;100894.88;5052110;28;20471;-73
2021/01/11 03:20:08;;;;;;;14.93;13.17;;;;;;;1.07;86.74;100885.75;5052408;28;20430;-73
2021/01/11 03:22:33;;;;;;;16.00;14.33;;;;;;;1.09;86.84;100878.25;5052144;28;20449;-73
2021/01/11 03:24:59;;;;;;;11.83;9.73;;;;;;;1.09;86.50;100870.19;5052142;28;20841;-72
2021/01/11 03:27:24;;;;;;;6.60;5.53;;;;;;;1.05;86.40;100872.56;5051519;28;20195;-73
2021/01/11 03:29:49;;;;;;;10.13;9.10;;;;;;;1.05;86.74;100872.56;5052017;28;20206;-72
2021/01/11 03:32:14;;;;;;;16.43;14.67;;;;;;;1.07;86.84;100865.06;5051896;28;20505;-73
2021/01/11 03:34:40;;;;;;;10.70;8.20;;;;;;;1.07;86.36;100865.06;5051689;28;20293;-73
2021/01/11 03:37:05;;;;;;;11.20;8.27;;;;;;;1.07;86.78;100864.25;5050098;28;20206;-73
2021/01/11 03:39:30;;;;;;;13.00;9.57;;;;;;;1.08;86.68;100857.81;5051809;28;20175;-73
2021/01/11 03:41:56;;;;;;;17.30;8.03;;;;;;;1.09;87.10;100860.25;5051699;28;20210;-73
2021/01/11 03:44:21;;;;;;;14.60;13.03;;;;;;;1.08;87.02;100861.31;5051562;28;20210;-73
2021/01/11 03:46:46;;;;;;;11.27;10.20;;;;;;;1.09;86.56;100862.13;5051667;28;20572;-73
2021/01/11 03:49:12;;;;;;;11.27;10.20;;;;;;;1.08;86.90;100860.50;5051429;28;20273;-74
2021/01/11 03:51:37;;;;;;;17.47;8.43;;;;;;;1.08;87.28;100861.31;5051317;28;20175;-73
2021/01/11 03:54:02;;;;;;;16.53;11.80;;;;;;;1.07;87.40;100859.66;5051528;28;20580;-73
2021/01/11 03:56:28;;;;;;;10.43;6.00;;;;;;;1.10;86.87;100855.69;5051106;28;20205;-72
2021/01/11 03:58:53;;;;;;;7.97;7.23;;;;;;;1.09;87.08;100857.56;5050003;28;20514;-73
2021/01/11 04:01:19;;;;;;;8.07;6.90;;;;;;;1.08;87.26;100864.00;5051463;28;20171;-73
2021/01/11 04:03:44;;;;;;;21.73;15.83;;;;;;;1.10;87.00;100864.56;5051346;28;20178;-74
2021/01/11 04:06:09;;;;;;;7.47;6.67;;;;;;;1.11;86.74;100860.00;5051353;28;20176;-73
2021/01/11 04:08:35;;;;;;;8.27;7.47;;;;;;;1.10;86.88;100861.06;5051258;28;20164;-73
2021/01/11 04:11:00;;;;;;;5.30;4.90;;;;;;;1.08;87.03;100863.19;5051163;28;20174;-73
2021/01/11 04:13:26;;;;;;;7.20;6.60;;;;;;;1.07;86.84;100875.00;5051016;28;20601;-73
2021/01/11 04:15:51;;;;;;;16.27;13.13;;;;;;;1.06;87.19;100860.72;5050114;28;20199;-73
2021/01/11 04:18:16;;;;;;;10.30;9.30;;;;;;;1.05;87.09;100856.41;5050688;28;20175;-72
2021/01/11 04:20:42;;;;;;;9.03;8.17;;;;;;;1.03;86.88;100858.53;5051113;28;20174;-73
2021/01/11 04:23:07;;;;;;;12.90;9.87;;;;;;;1.02;87.18;100856.06;5051020;28;20203;-71
2021/01/11 04:25:33;;;;;;;11.57;9.80;;;;;;;0.99;87.01;100857.34;5051037;28;20178;-73
2021/01/11 04:28:00;;;;;;;10.30;8.83;;;;;;;0.97;87.24;100856.75;5050889;28;20179;-74
2021/01/11 04:30:26;;;;;;;6.40;5.80;;;;;;;0.98;87.17;100853.03;5050824;28;20206;-73
2021/01/11 04:32:52;;;;;;;16.70;12.13;;;;;;;0.95;86.66;100853.50;5051259;28;20414;-72
2021/01/11 04:35:19;;;;;;;10.50;7.53;;;;;;;0.96;87.37;100862.38;5050714;28;20928;-73
2021/01/11 04:37:45;;;;;;;46.30;10.67;;;;;;;0.95;87.50;100861.56;5050512;28;20420;-73
2021/01/11 04:40:11;;;;;;;11.47;9.67;;;;;;;0.95;87.05;100853.50;5051324;28;20406;-72
2021/01/11 04:42:56;;;;;;;8.13;6.40;;;;;;;0.95;86.86;100852.69;5051024;28;20175;-73
2021/01/11 04:45:23;;;;;;;12.93;9.30;;;;;;;0.94;86.98;100851.88;5049648;28;20417;-73
2021/01/11 04:47:54;;;;;;;6.53;6.00;;;;;;;0.96;86.83;100854.31;5050629;28;20498;-73
2021/01/11 04:50:20;;;;;;;7.30;6.60;;;;;;;0.96;86.69;100848.94;5049414;28;20413;-72
2021/01/11 04:52:46;;;;;;;12.73;9.37;;;;;;;0.97;86.51;100854.06;5051259;28;20463;-72
2021/01/11 04:55:13;;;;;;;10.80;9.87;;;;;;;0.98;86.15;100844.94;5050479;28;20461;-72
2021/01/11 04:57:55;;;;;;;7.97;6.13;;;;;;;1.02;86.01;100850.69;5049045;28;20222;-73
2021/01/11 05:00:22;;;;;;;9.30;8.53;;;;;;;1.01;86.08;100849.03;5050676;28;20808;-73
2021/01/11 05:02:55;;;;;;;11.37;8.27;;;;;;;1.03;85.98;100844.25;5050713;28;20425;-72
2021/01/11 05:05:22;;;;;;;8.73;6.47;;;;;;;1.03;86.07;100828.13;5050686;28;20441;-72
2021/01/11 05:07:47;;;;;;;8.20;7.50;;;;;;;1.02;85.52;100838.06;5049985;28;20422;-73
2021/01/11 05:10:20;;;;;;;11.00;9.07;;;;;;;1.00;85.66;100829.38;5051164;28;20414;-73
2021/01/11 05:13:10;;;;;;;8.40;7.50;;;;;;;0.99;85.80;100817.00;5050691;28;20175;-74
2021/01/11 05:15:40;;;;;;;8.70;7.90;;;;;;;0.98;85.72;100815.34;5049660;28;20460;-73
2021/01/11 05:18:16;;;;;;;12.30;10.10;;;;;;;0.97;86.17;100811.03;5050045;28;20417;-74
2021/01/11 05:20:42;;;;;;;8.90;7.03;;;;;;;0.98;85.86;100817.22;5050427;28;20442;-74
2021/01/11 05:23:09;;;;;;;8.20;6.07;;;;;;;0.97;86.28;100815.59;5050261;28;20540;-72
2021/01/11 05:25:37;;;;;;;8.40;7.53;;;;;;;0.99;85.89;100819.69;5050607;28;20245;-73
2021/01/11 05:28:05;;;;;;;8.43;7.57;;;;;;;1.02;86.16;100821.91;5053900;28;20456;-74
2021/01/11 05:30:41;;;;;;;21.30;10.80;;;;;;;1.01;85.95;100812.19;5054204;28;20509;-73
2021/01/11 05:33:09;;;;;;;11.33;9.60;;;;;;;1.03;86.05;100812.78;5054250;28;20417;-73
2021/01/11 05:35:36;;;;;;;4.80;4.40;;;;;;;1.04;85.78;100811.72;5053990;28;20575;-74
2021/01/11 05:38:12;;;;;;;9.57;7.83;;;;;;;1.04;86.07;100811.72;5053472;28;20406;-73
2021/01/11 05:40:38;;;;;;;6.63;5.73;;;;;;;1.02;86.16;100813.84;5053882;28;20428;-73
2021/01/11 05:43:03;;;;;;;9.33;8.43;;;;;;;1.02;86.09;100802.28;5054289;28;20421;-72
2021/01/11 05:45:30;;;;;;;14.43;12.73;;;;;;;1.01;86.01;100806.81;5056934;28;20171;-72
2021/01/11 05:48:06;;;;;;;5.63;5.13;;;;;;;1.02;86.23;100808.47;5055788;28;20171;-72
2021/01/11 05:50:40;;;;;;;7.53;6.83;;;;;;;1.02;86.20;100800.41;5054409;28;20420;-72
2021/01/11 05:53:17;;;;;;;6.97;6.37;;;;;;;1.02;86.30;100807.66;5053930;28;20406;-71
2021/01/11 05:55:43;;;;;;;6.17;5.57;;;;;;;1.00;86.09;100799.78;5053864;28;20467;-72
2021/01/11 05:58:10;;;;;;;7.27;6.47;;;;;;;1.01;86.48;100801.44;5053491;28;20544;-71
2021/01/11 06:00:37;;;;;;;8.27;5.93;;;;;;;0.99;86.61;100800.03;5053739;28;20424;-72
2021/01/11 06:03:04;;;;;;;5.90;5.17;;;;;;;0.99;86.55;100800.84;5053685;28;20816;-72
2021/01/11 06:05:30;;;;;;;12.30;7.13;;;;;;;0.99;86.53;100800.84;5053624;28;20517;-72
2021/01/11 06:07:57;;;;;;;10.00;9.00;;;;;;;1.00;86.16;100799.78;5053079;28;20510;-72
2021/01/11 06:10:24;;;;;;;6.10;5.43;;;;;;;1.03;86.08;100799.34;5053894;28;20437;-71
2021/01/11 06:12:50;;;;;;;7.00;4.70;;;;;;;1.02;86.51;100792.31;5052351;28;20505;-72
2021/01/11 06:15:20;;;;;;;4.93;4.23;;;;;;;1.05;85.98;100785.66;5052463;28;20731;-72
2021/01/11 06:17:48;;;;;;;11.37;6.80;;;;;;;1.05;86.27;100785.66;5053162;28;20740;-73
2021/01/11 06:20:18;;;;;;;6.83;6.23;;;;;;;1.06;86.12;100785.41;5053393;28;20410;-72
2021/01/11 06:22:46;;;;;;;9.53;6.87;;;;;;;1.02;85.94;100784.25;5053270;28;20899;-72
2021/01/11 06:25:17;;;;;;;7.33;6.67;;;;;;;1.00;86.12;100780.97;5053206;28;20410;-72
2021/01/11 06:27:57;;;;;;;4.53;4.13;;;;;;;1.03;86.25;100777.00;5052694;28;20457;-72
2021/01/11 06:30:36;;;;;;;7.90;6.67;;;;;;;1.03;86.58;100774.31;5053078;28;20414;-72
2021/01/11 06:33:15;;;;;;;12.20;5.10;;;;;;;1.03;86.11;100767.06;5052982;28;20471;-72
2021/01/11 06:35:42;;;;;;;6.87;6.17;;;;;;;1.02;86.63;100770.00;5053073;28;20464;-72
2021/01/11 06:38:08;;;;;;;5.27;3.97;;;;;;;1.01;86.53;100769.16;5051293;28;20413;-72
2021/01/11 06:40:34;;;;;;;6.37;5.73;;;;;;;1.02;86.10;100770.81;5053085;28;20414;-72
2021/01/11 06:43:01;;;;;;;7.83;5.10;;;;;;;1.03;86.12;100777.81;5052931;28;20910;-72
2021/01/11 06:45:37;;;;;;;6.77;6.07;;;;;;;1.04;86.28;100784.81;5052659;28;20191;-72
2021/01/11 06:48:11;;;;;;;6.83;6.23;;;;;;;1.04;86.52;100781.31;5052321;28;20512;-72
2021/01/11 06:50:38;;;;;;;8.40;7.60;;;;;;;1.02;86.24;100778.88;5052573;28;20428;-72
2021/01/11 06:53:04;;;;;;;5.53;5.03;;;;;;;1.02;86.33;100781.56;5052610;28;20418;-72
2021/01/11 06:55:31;;;;;;;8.53;5.30;;;;;;;1.02;85.94;100784.25;5052568;28;20473;-72
2021/01/11 06:58:01;;;;;;;8.30;6.10;;;;;;;1.03;85.95;100775.13;5050717;28;20917;-72
2021/01/11 07:00:36;;;;;;;10.73;8.77;;;;;;;1.02;86.18;100767.31;5052610;28;20414;-72
2021/01/11 07:03:03;;;;;;;10.87;7.77;;;;;;;1.03;86.39;100767.06;5052507;28;20539;-72
2021/01/11 07:05:37;;;;;;;7.63;6.83;;;;;;;1.03;86.10;100769.75;5052372;28;20437;-72
2021/01/11 07:08:18;;;;;;;8.47;6.80;;;;;;;0.99;86.29;100767.75;5050647;28;20457;-72
2021/01/11 07:10:44;;;;;;;6.20;4.70;;;;;;;0.98;86.37;100766.13;5052452;28;20414;-72
2021/01/11 07:13:18;;;;;;;5.30;4.90;;;;;;;0.95;86.10;100764.75;5052224;28;20508;-72
2021/01/11 07:15:56;;;;;;;6.43;5.80;;;;;;;0.99;86.12;100776.63;5051460;28;20194;-72
2021/01/11 07:18:36;;;;;;;12.17;10.93;;;;;;;0.97;85.78;100769.88;5051903;28;20547;-73
2021/01/11 07:21:19;;;;;;;6.00;5.43;;;;;;;0.95;85.98;100755.84;5051992;28;20413;-73
2021/01/11 07:23:45;;;;;;;12.50;11.30;;;;;;;0.96;86.36;100771.75;5052253;28;20765;-72
2021/01/11 07:26:19;;;;;;;6.83;5.23;;;;;;;0.97;86.02;100756.44;5051497;28;20516;-72
2021/01/11 07:29:08;;;;;;;11.63;10.27;;;;;;;0.96;86.11;100760.16;5050766;28;20833;-73
2021/01/11 07:31:36;;;;;;;12.07;10.70;;;;;;;0.94;86.35;100757.72;5051966;28;20985;-72
2021/01/11 07:34:15;;;;;;;6.27;5.27;;;;;;;0.94;85.94;100773.88;5051928;28;20429;-72
2021/01/11 07:36:42;;;;;;;4.73;4.33;;;;;;;0.92;85.98;100778.66;5051616;28;20979;-72
2021/01/11 07:39:07;;;;;;;9.90;8.17;;;;;;;0.97;86.25;100788.69;5051838;28;20504;-73
2021/01/11 07:41:33;;;;;;;11.70;10.70;;;;;;;0.95;85.76;100775.50;5051739;28;20512;-73
2021/01/11 07:44:20;;;;;;;9.43;5.87;;;;;;;0.94;85.72;100783.81;5051660;28;20237;-72
2021/01/11 07:47:10;;;;;;;7.07;5.93;;;;;;;0.91;85.85;100778.91;5051495;28;20543;-72
2021/01/11 07:49:49;;;;;;;19.00;6.27;;;;;;;0.91;86.35;100784.28;5050201;28;20459;-73
2021/01/11 07:52:18;;;;;;;10.23;9.07;;;;;;;0.88;86.24;100775.66;5051575;28;20505;-74
2021/01/11 07:54:46;;;;;;;5.13;4.30;;;;;;;0.88;86.45;100764.06;5051445;28;20519;-73
2021/01/11 07:57:13;;;;;;;9.30;8.30;;;;;;;0.88;86.33;100764.06;5051301;28;20429;-73
2021/01/11 07:59:39;;;;;;;6.57;5.10;;;;;;;0.86;86.14;100766.97;5051311;28;20436;-73
2021/01/11 08:02:10;;;;;;;8.83;7.03;;;;;;;0.86;85.94;100763.47;5050009;28;20422;-73
2021/01/11 08:04:36;;;;;;;13.10;11.93;;;;;;;0.87;85.95;100779.41;5051291;28;20183;-73
2021/01/11 08:07:09;;;;;;;7.83;7.07;;;;;;;0.88;85.91;100770.28;5050946;28;20414;-74
2021/01/11 08:09:35;;;;;;;9.80;8.90;;;;;;;0.88;86.22;100775.66;5051187;28;20422;-73
2021/01/11 08:12:04;;;;;;;18.83;8.60;;;;;;;0.84;86.09;100761.03;5051145;28;20782;-74
2021/01/11 08:14:29;;;;;;;8.70;7.87;;;;;;;0.84;86.51;100773.66;5050349;28;20770;-73
2021/01/11 08:16:56;;;;;;;10.17;7.77;;;;;;;0.82;86.71;100765.00;5050654;28;20433;-73
2021/01/11 08:19:21;;;;;;;12.73;8.77;;;;;;;0.82;86.60;100762.31;5050865;28;20190;-73
2021/01/11 08:21:56;;;;;;;6.13;4.83;;;;;;;0.82;86.90;100755.06;5051137;28;20426;-73
2021/01/11 08:24:21;;;;;;;7.90;7.27;;;;;;;0.78;86.73;100756.63;5051034;28;20170;-75
2021/01/11 08:26:53;;;;;;;13.23;10.57;;;;;;;0.74;87.19;100752.78;5050447;28;20940;-74
2021/01/11 08:29:19;;;;;;;9.27;8.37;;;;;;;0.69;87.35;100749.97;5049423;28;20369;-74
2021/01/11 08:31:45;;;;;;;9.97;7.37;;;;;;;0.69;87.50;100743.78;5050655;28;20510;-74
2021/01/11 08:34:11;;;;;;;9.67;8.53;;;;;;;0.63;88.19;100747.44;5051067;28;20535;-74
2021/01/11 08:36:37;;;;;;;8.53;7.27;;;;;;;0.63;88.44;100758.19;5050502;28;20817;-75
2021/01/11 08:39:06;;;;;;;11.43;9.37;;;;;;;0.64;88.52;100743.69;5050635;28;20435;-75
2021/01/11 08:41:42;;;;;;;11.80;6.50;;;;;;;0.61;88.66;100747.66;5050647;28;20175;-74
2021/01/11 08:44:23;;;;;;;14.13;12.77;;;;;;;0.62;88.95;100749.31;5050646;28;20443;-75
2021/01/11 08:46:52;;;;;;;9.17;6.53;;;;;;;0.65;89.03;100745.31;5050402;28;20421;-74
2021/01/11 08:49:18;;;;;;;11.80;7.60;;;;;;;0.63;88.80;100745.56;5050903;28;20512;-75
2021/01/11 08:51:45;;;;;;;6.43;4.20;;;;;;;0.66;88.91;100745.06;5050558;28;20418;-74
2021/01/11 08:54:10;;;;;;;8.27;6.33;;;;;;;0.66;88.87;100749.63;5050502;28;20902;-74
2021/01/11 08:56:37;;;;;;;9.23;8.33;;;;;;;0.64;88.91;100738.31;5050061;28;20465;-74
2021/01/11 08:59:02;;;;;;;12.83;11.57;;;;;;;0.63;88.96;100729.44;5050496;28;20175;-74
2021/01/11 09:01:34;;;;;;;7.00;5.83;;;;;;;0.68;88.52;100734.06;5049789;28;20417;-75
2021/01/11 09:03:59;;;;;;;13.03;6.83;;;;;;;0.64;87.87;100719.50;5050517;28;20218;-74
2021/01/11 09:06:41;;;;;;;5.93;5.43;;;;;;;0.64;87.58;100738.31;5050104;28;20456;-72
2021/01/11 09:09:18;;;;;;;8.43;7.53;;;;;;;0.70;87.59;100737.34;5049030;28;20191;-73
2021/01/11 09:11:46;;;;;;;6.93;4.97;;;;;;;0.70;87.40;100748.09;5050340;28;20421;-73
2021/01/11 09:14:14;;;;;;;9.57;7.50;;;;;;;0.67;87.31;100717.13;5049383;28;20508;-73
2021/01/11 09:16:40;;;;;;;6.43;4.93;;;;;;;0.67;86.86;100713.63;5049831;28;20473;-74
2021/01/11 09:19:07;;;;;;;15.77;14.03;;;;;;;0.71;87.58;100712.91;5050349;28;21150;-73
2021/01/11 09:21:33;;;;;;;6.73;4.10;;;;;;;0.73;86.67;100718.06;5050434;28;20521;-73
2021/01/11 09:23:58;;;;;;;9.13;8.23;;;;;;;0.76;86.50;100725.66;5050954;28;20516;-73
2021/01/11 09:26:23;;;;;;;12.33;10.00;;;;;;;0.77;85.94;100736.16;5049911;28;20814;-72
2021/01/11 09:28:49;;;;;;;7.90;5.93;;;;;;;0.82;85.48;100735.44;5050701;28;20224;-74
2021/01/11 09:31:16;;;;;;;9.17;6.63;;;;;;;0.84;85.31;100734.13;5050233;28;20182;-72
2021/01/11 09:33:41;;;;;;;9.07;5.17;;;;;;;0.84;85.14;100731.44;5050250;28;20199;-72
2021/01/11 09:36:07;;;;;;;5.03;3.73;;;;;;;0.86;84.67;100723.13;5049970;28;20979;-73
2021/01/11 09:38:32;;;;;;;9.63;5.10;;;;;;;0.91;84.81;100720.56;5050010;28;20185;-73
2021/01/11 09:40:59;;;;;;;6.63;5.43;;;;;;;0.97;84.76;100708.81;5050206;28;20221;-73
2021/01/11 09:43:24;;;;;;;8.63;5.47;;;;;;;1.00;84.13;100718.28;5050119;28;20495;-73
2021/01/11 09:45:49;;;;;;;7.70;4.20;;;;;;;1.00;83.64;100705.63;5050239;28;20444;-73
2021/01/11 09:48:14;;;;;;;9.40;8.40;;;;;;;1.04;83.98;100706.81;5049846;28;20683;-73
2021/01/11 09:50:40;;;;;;;4.40;3.87;;;;;;;1.07;83.63;100716.28;5050173;28;20182;-73
2021/01/11 09:53:07;;;;;;;5.83;4.33;;;;;;;1.04;83.14;100714.88;5049949;28;20202;-73
2021/01/11 09:55:33;;;;;;;7.17;6.13;;;;;;;1.08;83.74;100709.81;5050215;28;20199;-74
2021/01/11 09:58:01;;;;;;;3.50;3.20;;;;;;;1.09;83.02;100720.34;5049595;28;20426;-73
2021/01/11 10:00:27;;;;;;;9.73;7.17;;;;;;;1.11;82.85;100726.28;5050141;28;20417;-73
2021/01/11 10:02:52;;;;;;;8.20;5.63;;;;;;;1.10;82.83;100719.28;5049935;28;20457;-71
2021/01/11 10:05:20;;;;;;;6.93;6.23;;;;;;;1.09;82.15;100714.97;5050059;28;20186;-72
2021/01/11 10:07:45;;;;;;;7.33;6.67;;;;;;;1.12;82.29;100713.66;5049410;28;20270;-71
2021/01/11 10:10:14;;;;;;;5.03;3.50;;;;;;;1.12;82.01;100711.78;5049941;28;20556;-72
2021/01/11 10:12:39;;;;;;;7.90;6.80;;;;;;;1.16;82.49;100712.94;5052953;28;20540;-72
2021/01/11 10:15:06;;;;;;;5.83;5.20;;;;;;;1.16;82.47;100701.38;5052661;28;20453;-72
2021/01/11 10:17:31;;;;;;;6.23;5.10;;;;;;;1.17;82.11;100703.81;5051984;28;20539;-74
2021/01/11 10:19:56;;;;;;;5.73;5.17;;;;;;;1.21;82.57;100693.38;5053736;28;20413;-74
2021/01/11 10:22:22;;;;;;;5.87;5.03;;;;;;;1.26;82.51;100693.44;5053820;28;20638;-73
2021/01/11 10:24:50;;;;;;;4.97;4.03;;;;;;;1.25;82.24;100689.13;5053642;28;20505;-72
2021/01/11 10:27:17;;;;;;;3.70;3.17;;;;;;;1.25;81.81;100691.00;5052763;28;20187;-73
2021/01/11 10:29:42;;;;;;;5.43;4.93;;;;;;;1.21;81.93;100687.19;5053533;28;20420;-75
2021/01/11 10:32:07;;;;;;;9.27;8.43;;;;;;;1.23;82.20;100683.19;5053265;28;20508;-71
2021/01/11 10:34:33;;;;;;;6.27;4.00;;;;;;;1.26;82.24;100684.56;5053152;28;20196;-72
2021/01/11 10:36:58;;;;;;;6.67;4.70;;;;;;;1.24;82.00;100675.94;5052723;28;20176;-73
2021/01/11 10:39:25;;;;;;;5.23;4.77;;;;;;;1.24;82.33;100657.09;5053103;28;20532;-71
2021/01/11 10:41:56;;;;;;;6.80;6.10;;;;;;;1.30;82.06;100677.63;5053455;28;20185;-77
2021/01/11 10:44:22;;;;;;;2.90;2.70;;;;;;;1.34;81.79;100668.03;5052894;28;20418;-72
2021/01/11 10:46:49;;;;;;;4.30;3.90;;;;;;;1.34;81.69;100663.47;5052560;28;20774;-72
2021/01/11 10:49:15;;;;;;;7.83;6.40;;;;;;;1.34;81.64;100660.75;5052810;28;20914;-72
2021/01/11 10:51:40;;;;;;;7.30;3.50;;;;;;;1.31;81.47;100671.22;5052792;28;20453;-73
2021/01/11 10:54:05;;;;;;;6.33;5.70;;;;;;;1.30;81.73;100662.31;5052791;28;20183;-72
2021/01/11 10:56:31;;;;;;;6.50;5.73;;;;;;;1.27;81.34;100651.22;5052690;28;20241;-72
2021/01/11 10:58:56;;;;;;;6.97;4.30;;;;;;;1.28;81.52;100644.75;5052802;28;20183;-72
2021/01/11 11:01:22;;;;;;;6.93;6.23;;;;;;;1.26;81.71;100647.69;5052570;28;20290;-72
2021/01/11 11:03:47;;;;;;;7.17;6.50;;;;;;;1.27;81.73;100646.66;5052542;28;20266;-72
2021/01/11 11:06:13;;;;;;;3.67;3.37;;;;;;;1.30;81.96;100634.56;5052211;28;20198;-72
2021/01/11 11:08:39;;;;;;;4.87;4.40;;;;;;;1.34;82.25;100641.13;5052456;28;20297;-72
2021/01/11 11:11:04;;;;;;;6.97;6.33;;;;;;;1.34;81.30;100628.47;5052295;28;20245;-72
2021/01/11 11:13:31;;;;;;;6.47;4.40;;;;;;;1.34;81.55;100633.03;5052613;28;20422;-72
2021/01/11 11:15:57;;;;;;;4.87;4.47;;;;;;;1.33;82.06;100626.84;5051822;28;20372;-72
2021/01/11 11:18:22;;;;;;;4.23;3.83;;;;;;;1.33;81.59;100626.03;5052048;28;20426;-72
2021/01/11 11:20:48;;;;;;;6.70;6.07;;;;;;;1.31;81.33;100622.78;5052373;28;20194;-71
2021/01/11 11:23:16;;;;;;;5.90;5.40;;;;;;;1.30;81.31;100618.41;5051639;28;20221;-71
2021/01/11 11:25:45;;;;;;;3.53;3.33;;;;;;;1.30;81.64;100610.34;5052108;28;20625;-71
2021/01/11 11:28:10;;;;;;;5.07;3.93;;;;;;;1.32;81.66;100600.19;5051591;28;20429;-72
2021/01/11 11:30:36;;;;;;;2.70;2.47;;;;;;;1.32;81.52;100594.78;5052183;28;20421;-72
2021/01/11 11:33:01;;;;;;;7.97;7.27;;;;;;;1.35;81.94;100599.69;5052194;28;20218;-73